sensor_id;sensor_type;location;lat;lon;timestamp;P1;durP1;ratioP1;P2;durP2;ratioP2
29538;SDS011;16482;51.046;4.498;2022-07-03T00:02:26;2.38;;;2.13;;
29538;SDS011;16482;51.046;4.498;2022-07-03T00:04:52;3.58;;;2.28;;
29538;SDS011;16482;51.046;4.498;2022-07-03T00:07:17;2.38;;;2.08;;
29538;SDS011;16482;51.046;4.498;2022-07-03T00:09:44;2.72;;;2.22;;
29538;SDS011;16482;51.046;4.498;2022-07-03T00:12:12;2.30;;;2.10;;
29538;SDS011;16482;51.046;4.498;2022-07-03T00:14:44;2.38;;;2.17;;
29538;SDS011;16482;51.046;4.498;2022-07-03T00:17:15;2.70;;;2.28;;
29538;SDS011;16482;51.046;4.498;2022-07-03T00:19:44;2.40;;;2.20;;
29538;SDS011;16482;51.046;4.498;2022-07-03T00:22:15;2.45;;;2.17;;
29538;SDS011;16482;51.046;4.498;2022-07-03T00:24:48;2.22;;;2.03;;
29538;SDS011;16482;51.046;4.498;2022-07-03T00:27:16;2.05;;;1.85;;
29538;SDS011;16482;51.046;4.498;2022-07-03T00:29:47;2.35;;;2.10;;
29538;SDS011;16482;51.046;4.498;2022-07-03T00:32:24;2.60;;;2.33;;
29538;SDS011;16482;51.046;4.498;2022-07-03T00:34:51;3.55;;;2.30;;
29538;SDS011;16482;51.046;4.498;2022-07-03T00:37:19;3.67;;;2.03;;
29538;SDS011;16482;51.046;4.498;2022-07-03T00:39:46;2.17;;;1.95;;
29538;SDS011;16482;51.046;4.498;2022-07-03T00:42:16;2.10;;;1.95;;
29538;SDS011;16482;51.046;4.498;2022-07-03T00:44:52;3.00;;;2.45;;
29538;SDS011;16482;51.046;4.498;2022-07-03T00:47:22;2.58;;;2.38;;
29538;SDS011;16482;51.046;4.498;2022-07-03T00:49:50;2.70;;;2.30;;
29538;SDS011;16482;51.046;4.498;2022-07-03T00:52:19;3.85;;;1.92;;
29538;SDS011;16482;51.046;4.498;2022-07-03T00:54:54;2.90;;;1.77;;
29538;SDS011;16482;51.046;4.498;2022-07-03T00:57:23;2.85;;;2.30;;
29538;SDS011;16482;51.046;4.498;2022-07-03T00:59:50;2.90;;;2.05;;
29538;SDS011;16482;51.046;4.498;2022-07-03T01:08:07;2.13;;;1.75;;
29538;SDS011;16482;51.046;4.498;2022-07-03T01:10:47;2.05;;;1.77;;
29538;SDS011;16482;51.046;4.498;2022-07-03T01:16:27;2.15;;;1.90;;
29538;SDS011;16482;51.046;4.498;2022-07-03T01:21:50;2.75;;;2.17;;
29538;SDS011;16482;51.046;4.498;2022-07-03T01:27:25;2.95;;;2.33;;
29538;SDS011;16482;51.046;4.498;2022-07-03T01:30:14;3.15;;;2.13;;
29538;SDS011;16482;51.046;4.498;2022-07-03T01:32:44;2.10;;;1.90;;
29538;SDS011;16482;51.046;4.498;2022-07-03T01:35:12;2.85;;;2.20;;
29538;SDS011;16482;51.046;4.498;2022-07-03T01:37:52;2.15;;;1.98;;
29538;SDS011;16482;51.046;4.498;2022-07-03T01:40:20;2.90;;;2.00;;
29538;SDS011;16482;51.046;4.498;2022-07-03T01:42:49;2.38;;;2.08;;
29538;SDS011;16482;51.046;4.498;2022-07-03T01:45:17;2.40;;;2.08;;
29538;SDS011;16482;51.046;4.498;2022-07-03T01:47:48;2.83;;;2.10;;
29538;SDS011;16482;51.046;4.498;2022-07-03T01:50:16;2.13;;;1.95;;
29538;SDS011;16482;51.046;4.498;2022-07-03T01:52:45;2.00;;;1.65;;
29538;SDS011;16482;51.046;4.498;2022-07-03T01:55:13;2.30;;;1.80;;
29538;SDS011;16482;51.046;4.498;2022-07-03T01:57:43;2.75;;;2.03;;
29538;SDS011;16482;51.046;4.498;2022-07-03T02:00:14;2.40;;;2.20;;
29538;SDS011;16482;51.046;4.498;2022-07-03T02:02:49;2.53;;;2.00;;
29538;SDS011;16482;51.046;4.498;2022-07-03T02:05:44;2.67;;;2.13;;
29538;SDS011;16482;51.046;4.498;2022-07-03T02:08:17;2.35;;;2.10;;
29538;SDS011;16482;51.046;4.498;2022-07-03T02:16:28;2.10;;;1.90;;
29538;SDS011;16482;51.046;4.498;2022-07-03T02:19:03;2.83;;;2.20;;
29538;SDS011;16482;51.046;4.498;2022-07-03T02:21:30;2.50;;;2.30;;
29538;SDS011;16482;51.046;4.498;2022-07-03T02:27:03;3.35;;;2.45;;
29538;SDS011;16482;51.046;4.498;2022-07-03T02:29:36;2.67;;;2.17;;
29538;SDS011;16482;51.046;4.498;2022-07-03T02:32:19;3.63;;;2.20;;
29538;SDS011;16482;51.046;4.498;2022-07-03T02:38:19;2.55;;;2.35;;
29538;SDS011;16482;51.046;4.498;2022-07-03T02:46:21;4.45;;;2.40;;
29538;SDS011;16482;51.046;4.498;2022-07-03T02:52:04;2.95;;;2.10;;
29538;SDS011;16482;51.046;4.498;2022-07-03T02:54:58;2.50;;;2.28;;
29538;SDS011;16482;51.046;4.498;2022-07-03T02:57:36;2.75;;;2.00;;
29538;SDS011;16482;51.046;4.498;2022-07-03T03:00:06;3.00;;;2.00;;
29538;SDS011;16482;51.046;4.498;2022-07-03T03:08:12;3.60;;;2.05;;
29538;SDS011;16482;51.046;4.498;2022-07-03T03:10:39;2.35;;;2.15;;
29538;SDS011;16482;51.046;4.498;2022-07-03T03:13:06;2.25;;;1.90;;
29538;SDS011;16482;51.046;4.498;2022-07-03T03:15:37;2.47;;;2.25;;
29538;SDS011;16482;51.046;4.498;2022-07-03T03:18:11;2.92;;;2.00;;
29538;SDS011;16482;51.046;4.498;2022-07-03T03:20:39;2.20;;;2.00;;
29538;SDS011;16482;51.046;4.498;2022-07-03T03:23:16;2.60;;;1.98;;
29538;SDS011;16482;51.046;4.498;2022-07-03T03:25:53;3.95;;;2.05;;
29538;SDS011;16482;51.046;4.498;2022-07-03T03:28:20;3.17;;;2.05;;
29538;SDS011;16482;51.046;4.498;2022-07-03T03:30:46;2.47;;;1.90;;
29538;SDS011;16482;51.046;4.498;2022-07-03T03:33:13;2.17;;;1.90;;
29538;SDS011;16482;51.046;4.498;2022-07-03T03:35:39;2.08;;;1.80;;
29538;SDS011;16482;51.046;4.498;2022-07-03T03:38:08;2.22;;;1.90;;
29538;SDS011;16482;51.046;4.498;2022-07-03T03:40:36;2.00;;;1.85;;
29538;SDS011;16482;51.046;4.498;2022-07-03T03:43:10;2.10;;;1.80;;
29538;SDS011;16482;51.046;4.498;2022-07-03T03:45:38;1.92;;;1.80;;
29538;SDS011;16482;51.046;4.498;2022-07-03T03:48:07;1.90;;;1.80;;
29538;SDS011;16482;51.046;4.498;2022-07-03T03:50:42;2.00;;;1.80;;
29538;SDS011;16482;51.046;4.498;2022-07-03T03:53:10;2.30;;;1.60;;
29538;SDS011;16482;51.046;4.498;2022-07-03T03:55:39;2.67;;;1.60;;
29538;SDS011;16482;51.046;4.498;2022-07-03T03:58:41;2.53;;;1.85;;
29538;SDS011;16482;51.046;4.498;2022-07-03T04:01:08;1.80;;;1.65;;
29538;SDS011;16482;51.046;4.498;2022-07-03T04:03:35;2.42;;;1.80;;
29538;SDS011;16482;51.046;4.498;2022-07-03T04:06:02;1.98;;;1.73;;
29538;SDS011;16482;51.046;4.498;2022-07-03T04:08:28;1.80;;;1.70;;
29538;SDS011;16482;51.046;4.498;2022-07-03T04:10:55;1.90;;;1.73;;
29538;SDS011;16482;51.046;4.498;2022-07-03T04:13:24;2.40;;;1.63;;
29538;SDS011;16482;51.046;4.498;2022-07-03T04:15:51;1.95;;;1.73;;
29538;SDS011;16482;51.046;4.498;2022-07-03T04:18:18;2.35;;;1.70;;
29538;SDS011;16482;51.046;4.498;2022-07-03T04:20:44;2.95;;;1.60;;
29538;SDS011;16482;51.046;4.498;2022-07-03T04:23:10;2.33;;;1.70;;
29538;SDS011;16482;51.046;4.498;2022-07-03T04:25:39;2.17;;;1.75;;
29538;SDS011;16482;51.046;4.498;2022-07-03T04:28:05;1.95;;;1.67;;
29538;SDS011;16482;51.046;4.498;2022-07-03T04:30:39;2.10;;;1.70;;
29538;SDS011;16482;51.046;4.498;2022-07-03T04:33:07;1.60;;;1.50;;
29538;SDS011;16482;51.046;4.498;2022-07-03T04:35:33;2.55;;;1.80;;
29538;SDS011;16482;51.046;4.498;2022-07-03T04:38:15;2.05;;;1.70;;
29538;SDS011;16482;51.046;4.498;2022-07-03T04:40:41;2.90;;;1.70;;
29538;SDS011;16482;51.046;4.498;2022-07-03T04:43:07;1.80;;;1.60;;
29538;SDS011;16482;51.046;4.498;2022-07-03T04:45:36;1.65;;;1.45;;
29538;SDS011;16482;51.046;4.498;2022-07-03T04:48:10;2.20;;;1.63;;
29538;SDS011;16482;51.046;4.498;2022-07-03T04:50:36;2.55;;;1.65;;
29538;SDS011;16482;51.046;4.498;2022-07-03T04:53:09;2.33;;;1.80;;
29538;SDS011;16482;51.046;4.498;2022-07-03T04:55:44;2.60;;;1.88;;
29538;SDS011;16482;51.046;4.498;2022-07-03T04:58:10;1.63;;;1.52;;
29538;SDS011;16482;51.046;4.498;2022-07-03T05:00:39;1.60;;;1.50;;
29538;SDS011;16482;51.046;4.498;2022-07-03T05:03:18;2.22;;;1.70;;
29538;SDS011;16482;51.046;4.498;2022-07-03T05:05:44;1.67;;;1.58;;
29538;SDS011;16482;51.046;4.498;2022-07-03T05:08:10;1.90;;;1.50;;
29538;SDS011;16482;51.046;4.498;2022-07-03T05:10:38;1.83;;;1.60;;
29538;SDS011;16482;51.046;4.498;2022-07-03T05:13:13;1.65;;;1.40;;
29538;SDS011;16482;51.046;4.498;2022-07-03T05:15:42;2.20;;;1.63;;
29538;SDS011;16482;51.046;4.498;2022-07-03T05:18:10;1.70;;;1.60;;
29538;SDS011;16482;51.046;4.498;2022-07-03T05:20:36;1.45;;;1.35;;
29538;SDS011;16482;51.046;4.498;2022-07-03T05:23:08;2.25;;;1.88;;
29538;SDS011;16482;51.046;4.498;2022-07-03T05:25:43;1.98;;;1.65;;
29538;SDS011;16482;51.046;4.498;2022-07-03T05:28:09;1.80;;;1.60;;
29538;SDS011;16482;51.046;4.498;2022-07-03T05:30:37;2.13;;;1.52;;
29538;SDS011;16482;51.046;4.498;2022-07-03T05:33:05;2.00;;;1.52;;
29538;SDS011;16482;51.046;4.498;2022-07-03T05:35:39;2.30;;;1.67;;
29538;SDS011;16482;51.046;4.498;2022-07-03T05:38:08;2.15;;;1.88;;
29538;SDS011;16482;51.046;4.498;2022-07-03T05:40:38;2.45;;;1.98;;
29538;SDS011;16482;51.046;4.498;2022-07-03T05:43:07;2.95;;;1.95;;
29538;SDS011;16482;51.046;4.498;2022-07-03T05:45:38;1.83;;;1.67;;
29538;SDS011;16482;51.046;4.498;2022-07-03T05:48:07;2.00;;;1.80;;
29538;SDS011;16482;51.046;4.498;2022-07-03T05:50:42;2.17;;;1.90;;
29538;SDS011;16482;51.046;4.498;2022-07-03T05:53:10;2.53;;;2.10;;
29538;SDS011;16482;51.046;4.498;2022-07-03T05:55:36;1.92;;;1.70;;
29538;SDS011;16482;51.046;4.498;2022-07-03T05:58:12;2.10;;;1.75;;
29538;SDS011;16482;51.046;4.498;2022-07-03T06:00:40;2.72;;;2.10;;
29538;SDS011;16482;51.046;4.498;2022-07-03T06:03:09;2.88;;;2.00;;
29538;SDS011;16482;51.046;4.498;2022-07-03T06:05:40;2.65;;;2.22;;
29538;SDS011;16482;51.046;4.498;2022-07-03T06:08:09;2.05;;;1.80;;
29538;SDS011;16482;51.046;4.498;2022-07-03T06:10:40;2.17;;;1.98;;
29538;SDS011;16482;51.046;4.498;2022-07-03T06:13:09;2.67;;;2.08;;
29538;SDS011;16482;51.046;4.498;2022-07-03T06:15:38;1.92;;;1.73;;
29538;SDS011;16482;51.046;4.498;2022-07-03T06:18:14;2.28;;;2.08;;
29538;SDS011;16482;51.046;4.498;2022-07-03T06:20:40;3.75;;;2.30;;
29538;SDS011;16482;51.046;4.498;2022-07-03T06:23:09;3.10;;;2.03;;
29538;SDS011;16482;51.046;4.498;2022-07-03T06:25:40;3.60;;;2.03;;
29538;SDS011;16482;51.046;4.498;2022-07-03T06:28:08;3.25;;;1.95;;
29538;SDS011;16482;51.046;4.498;2022-07-03T06:30:43;3.75;;;1.70;;
29538;SDS011;16482;51.046;4.498;2022-07-03T06:33:09;6.97;;;2.13;;
29538;SDS011;16482;51.046;4.498;2022-07-03T06:35:40;3.05;;;1.80;;
29538;SDS011;16482;51.046;4.498;2022-07-03T06:38:09;5.63;;;2.00;;
29538;SDS011;16482;51.046;4.498;2022-07-03T06:40:38;3.95;;;2.10;;
29538;SDS011;16482;51.046;4.498;2022-07-03T06:43:13;5.45;;;2.42;;
29538;SDS011;16482;51.046;4.498;2022-07-03T06:45:47;3.95;;;2.17;;
29538;SDS011;16482;51.046;4.498;2022-07-03T06:48:13;4.60;;;2.00;;
29538;SDS011;16482;51.046;4.498;2022-07-03T06:50:39;3.40;;;1.80;;
29538;SDS011;16482;51.046;4.498;2022-07-03T06:53:08;3.10;;;1.70;;
29538;SDS011;16482;51.046;4.498;2022-07-03T06:55:37;3.70;;;1.50;;
29538;SDS011;16482;51.046;4.498;2022-07-03T06:58:10;5.53;;;1.77;;
29538;SDS011;16482;51.046;4.498;2022-07-03T07:00:39;4.10;;;1.70;;
29538;SDS011;16482;51.046;4.498;2022-07-03T07:03:08;4.63;;;1.52;;
29538;SDS011;16482;51.046;4.498;2022-07-03T07:05:37;6.28;;;1.58;;
29538;SDS011;16482;51.046;4.498;2022-07-03T07:08:08;4.43;;;1.40;;
29538;SDS011;16482;51.046;4.498;2022-07-03T07:10:41;4.50;;;1.48;;
29538;SDS011;16482;51.046;4.498;2022-07-03T07:13:10;3.90;;;1.60;;
29538;SDS011;16482;51.046;4.498;2022-07-03T07:15:39;3.97;;;1.77;;
29538;SDS011;16482;51.046;4.498;2022-07-03T07:18:08;3.05;;;1.50;;
29538;SDS011;16482;51.046;4.498;2022-07-03T07:20:37;3.92;;;1.92;;
29538;SDS011;16482;51.046;4.498;2022-07-03T07:23:13;3.55;;;1.90;;
29538;SDS011;16482;51.046;4.498;2022-07-03T07:25:39;6.05;;;1.80;;
29538;SDS011;16482;51.046;4.498;2022-07-03T07:28:08;2.60;;;2.00;;
29538;SDS011;16482;51.046;4.498;2022-07-03T07:30:38;5.28;;;2.20;;
29538;SDS011;16482;51.046;4.498;2022-07-03T07:33:08;4.47;;;1.75;;
29538;SDS011;16482;51.046;4.498;2022-07-03T07:35:43;3.47;;;1.90;;
29538;SDS011;16482;51.046;4.498;2022-07-03T07:38:12;5.22;;;2.58;;
29538;SDS011;16482;51.046;4.498;2022-07-03T07:40:38;3.55;;;2.03;;
29538;SDS011;16482;51.046;4.498;2022-07-03T07:43:08;4.20;;;2.05;;
29538;SDS011;16482;51.046;4.498;2022-07-03T07:45:37;7.55;;;2.30;;
29538;SDS011;16482;51.046;4.498;2022-07-03T07:48:12;7.15;;;2.58;;
29538;SDS011;16482;51.046;4.498;2022-07-03T07:50:38;6.68;;;2.95;;
29538;SDS011;16482;51.046;4.498;2022-07-03T07:53:13;7.43;;;2.97;;
29538;SDS011;16482;51.046;4.498;2022-07-03T07:55:39;7.82;;;3.22;;
29538;SDS011;16482;51.046;4.498;2022-07-03T07:58:07;20.67;;;4.75;;
29538;SDS011;16482;51.046;4.498;2022-07-03T08:00:36;9.93;;;2.90;;
29538;SDS011;16482;51.046;4.498;2022-07-03T08:03:25;7.20;;;2.90;;
29538;SDS011;16482;51.046;4.498;2022-07-03T08:06:09;7.97;;;2.85;;
29538;SDS011;16482;51.046;4.498;2022-07-03T08:08:36;4.60;;;2.40;;
29538;SDS011;16482;51.046;4.498;2022-07-03T08:11:02;5.07;;;2.50;;
29538;SDS011;16482;51.046;4.498;2022-07-03T08:13:28;7.15;;;3.10;;
29538;SDS011;16482;51.046;4.498;2022-07-03T08:15:54;9.00;;;3.10;;
29538;SDS011;16482;51.046;4.498;2022-07-03T08:18:20;6.32;;;2.70;;
29538;SDS011;16482;51.046;4.498;2022-07-03T08:20:46;5.75;;;2.47;;
29538;SDS011;16482;51.046;4.498;2022-07-03T08:23:12;4.22;;;1.98;;
29538;SDS011;16482;51.046;4.498;2022-07-03T08:25:38;6.07;;;2.47;;
29538;SDS011;16482;51.046;4.498;2022-07-03T08:28:11;3.83;;;2.28;;
29538;SDS011;16482;51.046;4.498;2022-07-03T08:30:37;2.78;;;2.30;;
29538;SDS011;16482;51.046;4.498;2022-07-03T08:33:12;7.53;;;2.47;;
29538;SDS011;16482;51.046;4.498;2022-07-03T08:35:40;5.50;;;2.20;;
29538;SDS011;16482;51.046;4.498;2022-07-03T08:38:09;4.20;;;2.15;;
29538;SDS011;16482;51.046;4.498;2022-07-03T08:40:38;4.32;;;1.92;;
29538;SDS011;16482;51.046;4.498;2022-07-03T08:43:08;4.78;;;2.28;;
29538;SDS011;16482;51.046;4.498;2022-07-03T08:45:37;3.75;;;2.15;;
29538;SDS011;16482;51.046;4.498;2022-07-03T08:48:07;2.65;;;2.20;;
29538;SDS011;16482;51.046;4.498;2022-07-03T08:50:39;5.10;;;1.95;;
29538;SDS011;16482;51.046;4.498;2022-07-03T08:53:09;3.15;;;2.17;;
29538;SDS011;16482;51.046;4.498;2022-07-03T08:55:36;3.67;;;2.25;;
29538;SDS011;16482;51.046;4.498;2022-07-03T08:58:09;5.47;;;1.90;;
29538;SDS011;16482;51.046;4.498;2022-07-03T09:00:38;3.45;;;1.90;;
29538;SDS011;16482;51.046;4.498;2022-07-03T09:03:10;3.53;;;2.13;;
29538;SDS011;16482;51.046;4.498;2022-07-03T09:05:37;3.63;;;2.00;;
29538;SDS011;16482;51.046;4.498;2022-07-03T09:08:09;4.50;;;2.22;;
29538;SDS011;16482;51.046;4.498;2022-07-03T09:10:38;4.03;;;2.13;;
29538;SDS011;16482;51.046;4.498;2022-07-03T09:13:10;3.95;;;2.00;;
29538;SDS011;16482;51.046;4.498;2022-07-03T09:15:36;4.35;;;2.20;;
29538;SDS011;16482;51.046;4.498;2022-07-03T09:18:13;4.05;;;1.95;;
29538;SDS011;16482;51.046;4.498;2022-07-03T09:20:40;2.90;;;2.00;;
29538;SDS011;16482;51.046;4.498;2022-07-03T09:23:17;4.00;;;2.13;;
29538;SDS011;16482;51.046;4.498;2022-07-03T09:28:19;2.45;;;1.95;;
29538;SDS011;16482;51.046;4.498;2022-07-03T09:30:58;5.15;;;2.20;;
29538;SDS011;16482;51.046;4.498;2022-07-03T09:33:27;3.05;;;1.83;;
29538;SDS011;16482;51.046;4.498;2022-07-03T09:35:56;3.75;;;2.20;;
29538;SDS011;16482;51.046;4.498;2022-07-03T09:38:22;4.13;;;2.15;;
29538;SDS011;16482;51.046;4.498;2022-07-03T09:40:49;2.95;;;2.00;;
29538;SDS011;16482;51.046;4.498;2022-07-03T09:43:24;4.22;;;1.90;;
29538;SDS011;16482;51.046;4.498;2022-07-03T09:46:00;4.25;;;2.22;;
29538;SDS011;16482;51.046;4.498;2022-07-03T09:48:31;2.75;;;2.08;;
29538;SDS011;16482;51.046;4.498;2022-07-03T09:53:47;4.07;;;2.13;;
29538;SDS011;16482;51.046;4.498;2022-07-03T09:56:13;2.30;;;2.10;;
29538;SDS011;16482;51.046;4.498;2022-07-03T09:58:41;3.08;;;1.77;;
29538;SDS011;16482;51.046;4.498;2022-07-03T10:01:46;4.03;;;2.00;;
29538;SDS011;16482;51.046;4.498;2022-07-03T10:04:19;2.75;;;1.70;;
29538;SDS011;16482;51.046;4.498;2022-07-03T10:06:47;2.78;;;1.90;;
29538;SDS011;16482;51.046;4.498;2022-07-03T10:09:23;3.33;;;1.60;;
29538;SDS011;16482;51.046;4.498;2022-07-03T10:11:50;5.75;;;1.67;;
29538;SDS011;16482;51.046;4.498;2022-07-03T10:14:18;3.90;;;1.73;;
29538;SDS011;16482;51.046;4.498;2022-07-03T10:16:50;3.05;;;2.00;;
29538;SDS011;16482;51.046;4.498;2022-07-03T10:19:30;3.53;;;1.90;;
29538;SDS011;16482;51.046;4.498;2022-07-03T10:22:06;2.50;;;1.75;;
29538;SDS011;16482;51.046;4.498;2022-07-03T10:24:47;2.63;;;1.80;;
29538;SDS011;16482;51.046;4.498;2022-07-03T10:27:17;5.53;;;1.77;;
29538;SDS011;16482;51.046;4.498;2022-07-03T10:29:47;3.10;;;1.75;;
29538;SDS011;16482;51.046;4.498;2022-07-03T10:32:23;2.25;;;1.60;;
29538;SDS011;16482;51.046;4.498;2022-07-03T10:34:50;2.95;;;1.63;;
29538;SDS011;16482;51.046;4.498;2022-07-03T10:37:20;2.15;;;1.67;;
29538;SDS011;16482;51.046;4.498;2022-07-03T10:42:52;4.30;;;1.73;;
29538;SDS011;16482;51.046;4.498;2022-07-03T10:48:50;5.00;;;1.60;;
29538;SDS011;16482;51.046;4.498;2022-07-03T10:51:17;2.00;;;1.30;;
29538;SDS011;16482;51.046;4.498;2022-07-03T10:53:43;1.88;;;1.42;;
29538;SDS011;16482;51.046;4.498;2022-07-03T10:56:09;2.95;;;1.50;;
29538;SDS011;16482;51.046;4.498;2022-07-03T10:58:59;4.90;;;1.30;;
29538;SDS011;16482;51.046;4.498;2022-07-03T11:01:28;3.33;;;1.50;;
29538;SDS011;16482;51.046;4.498;2022-07-03T11:04:02;2.70;;;1.70;;
29538;SDS011;16482;51.046;4.498;2022-07-03T11:09:10;2.10;;;1.73;;
29538;SDS011;16482;51.046;4.498;2022-07-03T11:11:44;2.90;;;1.73;;
29538;SDS011;16482;51.046;4.498;2022-07-03T11:14:21;3.58;;;1.48;;
29538;SDS011;16482;51.046;4.498;2022-07-03T11:16:49;3.25;;;1.75;;
29538;SDS011;16482;51.046;4.498;2022-07-03T11:19:34;3.70;;;1.73;;
29538;SDS011;16482;51.046;4.498;2022-07-03T11:22:01;1.92;;;1.60;;
29538;SDS011;16482;51.046;4.498;2022-07-03T11:24:41;3.45;;;1.90;;
29538;SDS011;16482;51.046;4.498;2022-07-03T11:27:21;4.35;;;1.77;;
29538;SDS011;16482;51.046;4.498;2022-07-03T11:29:53;4.55;;;1.60;;
29538;SDS011;16482;51.046;4.498;2022-07-03T11:38:23;2.22;;;1.60;;
29538;SDS011;16482;51.046;4.498;2022-07-03T11:40:52;4.47;;;1.60;;
29538;SDS011;16482;51.046;4.498;2022-07-03T11:43:19;3.97;;;1.80;;
29538;SDS011;16482;51.046;4.498;2022-07-03T11:45:46;2.40;;;1.80;;
29538;SDS011;16482;51.046;4.498;2022-07-03T11:48:14;2.65;;;1.67;;
29538;SDS011;16482;51.046;4.498;2022-07-03T11:50:42;3.03;;;1.90;;
29538;SDS011;16482;51.046;4.498;2022-07-03T11:53:17;3.63;;;1.95;;
29538;SDS011;16482;51.046;4.498;2022-07-03T11:58:42;2.38;;;1.60;;
29538;SDS011;16482;51.046;4.498;2022-07-03T12:04:09;2.00;;;1.40;;
29538;SDS011;16482;51.046;4.498;2022-07-03T12:06:52;2.88;;;1.75;;
29538;SDS011;16482;51.046;4.498;2022-07-03T12:09:22;2.50;;;1.67;;
29538;SDS011;16482;51.046;4.498;2022-07-03T12:11:58;2.85;;;1.70;;
29538;SDS011;16482;51.046;4.498;2022-07-03T12:14:38;3.10;;;1.80;;
29538;SDS011;16482;51.046;4.498;2022-07-03T12:17:20;1.98;;;1.50;;
29538;SDS011;16482;51.046;4.498;2022-07-03T12:19:54;7.43;;;1.40;;
29538;SDS011;16482;51.046;4.498;2022-07-03T12:22:28;3.38;;;1.65;;
29538;SDS011;16482;51.046;4.498;2022-07-03T12:24:57;4.80;;;1.60;;
29538;SDS011;16482;51.046;4.498;2022-07-03T12:27:28;3.33;;;1.73;;
29538;SDS011;16482;51.046;4.498;2022-07-03T12:29:57;2.97;;;1.77;;
29538;SDS011;16482;51.046;4.498;2022-07-03T12:32:24;3.03;;;1.60;;
29538;SDS011;16482;51.046;4.498;2022-07-03T12:34:53;2.10;;;1.60;;
29538;SDS011;16482;51.046;4.498;2022-07-03T12:37:39;2.65;;;1.48;;
29538;SDS011;16482;51.046;4.498;2022-07-03T12:40:09;1.77;;;1.65;;
29538;SDS011;16482;51.046;4.498;2022-07-03T12:42:45;2.38;;;1.60;;
29538;SDS011;16482;51.046;4.498;2022-07-03T12:45:13;2.13;;;1.52;;
29538;SDS011;16482;51.046;4.498;2022-07-03T12:47:41;2.58;;;1.90;;
29538;SDS011;16482;51.046;4.498;2022-07-03T12:50:07;2.38;;;1.63;;
29538;SDS011;16482;51.046;4.498;2022-07-03T12:52:48;1.98;;;1.70;;
29538;SDS011;16482;51.046;4.498;2022-07-03T12:55:22;2.25;;;1.52;;
29538;SDS011;16482;51.046;4.498;2022-07-03T13:00:56;2.33;;;1.50;;
29538;SDS011;16482;51.046;4.498;2022-07-03T13:03:36;2.25;;;1.70;;
29538;SDS011;16482;51.046;4.498;2022-07-03T13:06:14;5.18;;;1.80;;
29538;SDS011;16482;51.046;4.498;2022-07-03T13:11:30;2.38;;;1.80;;
29538;SDS011;16482;51.046;4.498;2022-07-03T13:16:47;2.22;;;1.77;;
29538;SDS011;16482;51.046;4.498;2022-07-03T13:19:15;1.80;;;1.45;;
29538;SDS011;16482;51.046;4.498;2022-07-03T13:21:42;1.92;;;1.60;;
29538;SDS011;16482;51.046;4.498;2022-07-03T13:24:08;3.30;;;1.40;;
29538;SDS011;16482;51.046;4.498;2022-07-03T13:26:36;1.85;;;1.52;;
29538;SDS011;16482;51.046;4.498;2022-07-03T13:29:02;1.58;;;1.40;;
29538;SDS011;16482;51.046;4.498;2022-07-03T13:31:31;1.60;;;1.35;;
29538;SDS011;16482;51.046;4.498;2022-07-03T13:33:59;2.13;;;1.45;;
29538;SDS011;16482;51.046;4.498;2022-07-03T13:36:33;2.30;;;1.70;;
29538;SDS011;16482;51.046;4.498;2022-07-03T13:38:59;1.80;;;1.55;;
29538;SDS011;16482;51.046;4.498;2022-07-03T13:41:28;1.67;;;1.30;;
29538;SDS011;16482;51.046;4.498;2022-07-03T13:44:02;1.80;;;1.60;;
29538;SDS011;16482;51.046;4.498;2022-07-03T13:46:28;1.70;;;1.40;;
29538;SDS011;16482;51.046;4.498;2022-07-03T13:49:01;2.33;;;1.63;;
29538;SDS011;16482;51.046;4.498;2022-07-03T13:51:30;1.95;;;1.48;;
29538;SDS011;16482;51.046;4.498;2022-07-03T13:53:58;2.70;;;1.42;;
29538;SDS011;16482;51.046;4.498;2022-07-03T13:56:34;2.65;;;1.58;;
29538;SDS011;16482;51.046;4.498;2022-07-03T13:59:00;2.72;;;1.65;;
29538;SDS011;16482;51.046;4.498;2022-07-03T14:01:28;1.92;;;1.60;;
29538;SDS011;16482;51.046;4.498;2022-07-03T14:04:03;1.65;;;1.40;;
29538;SDS011;16482;51.046;4.498;2022-07-03T14:06:29;1.30;;;1.20;;
29538;SDS011;16482;51.046;4.498;2022-07-03T14:08:58;2.78;;;1.85;;
29538;SDS011;16482;51.046;4.498;2022-07-03T14:11:33;2.83;;;1.80;;
29538;SDS011;16482;51.046;4.498;2022-07-03T14:13:59;1.67;;;1.30;;
29538;SDS011;16482;51.046;4.498;2022-07-03T14:16:35;2.05;;;1.40;;
29538;SDS011;16482;51.046;4.498;2022-07-03T14:19:01;1.90;;;1.63;;
29538;SDS011;16482;51.046;4.498;2022-07-03T14:21:31;3.47;;;1.70;;
29538;SDS011;16482;51.046;4.498;2022-07-03T14:24:00;1.92;;;1.40;;
29538;SDS011;16482;51.046;4.498;2022-07-03T14:26:28;2.72;;;1.55;;
29538;SDS011;16482;51.046;4.498;2022-07-03T14:29:13;1.10;;;1.00;;
29538;SDS011;16482;51.046;4.498;2022-07-03T14:31:57;1.80;;;1.25;;
29538;SDS011;16482;51.046;4.498;2022-07-03T14:34:41;1.42;;;1.27;;
29538;SDS011;16482;51.046;4.498;2022-07-03T14:37:17;1.48;;;1.30;;
29538;SDS011;16482;51.046;4.498;2022-07-03T14:39:49;1.35;;;1.10;;
29538;SDS011;16482;51.046;4.498;2022-07-03T14:42:22;1.30;;;1.20;;
29538;SDS011;16482;51.046;4.498;2022-07-03T14:44:48;1.80;;;1.25;;
29538;SDS011;16482;51.046;4.498;2022-07-03T14:47:18;1.70;;;1.17;;
29538;SDS011;16482;51.046;4.498;2022-07-03T14:49:53;1.65;;;1.02;;
29538;SDS011;16482;51.046;4.498;2022-07-03T14:52:19;1.50;;;1.30;;
29538;SDS011;16482;51.046;4.498;2022-07-03T14:54:48;1.48;;;1.27;;
29538;SDS011;16482;51.046;4.498;2022-07-03T14:57:30;2.00;;;1.40;;
29538;SDS011;16482;51.046;4.498;2022-07-03T15:00:07;1.98;;;1.30;;
29538;SDS011;16482;51.046;4.498;2022-07-03T15:05:40;1.45;;;1.00;;
29538;SDS011;16482;51.046;4.498;2022-07-03T15:11:02;2.00;;;1.48;;
29538;SDS011;16482;51.046;4.498;2022-07-03T15:14:05;1.30;;;1.00;;
29538;SDS011;16482;51.046;4.498;2022-07-03T15:16:33;1.20;;;1.10;;
29538;SDS011;16482;51.046;4.498;2022-07-03T15:19:03;1.67;;;1.02;;
29538;SDS011;16482;51.046;4.498;2022-07-03T15:21:34;1.63;;;1.10;;
29538;SDS011;16482;51.046;4.498;2022-07-03T15:24:03;1.55;;;1.08;;
29538;SDS011;16482;51.046;4.498;2022-07-03T15:26:32;1.80;;;1.17;;
29538;SDS011;16482;51.046;4.498;2022-07-03T15:29:01;1.15;;;1.02;;
29538;SDS011;16482;51.046;4.498;2022-07-03T15:31:35;1.55;;;1.23;;
29538;SDS011;16482;51.046;4.498;2022-07-03T15:34:04;1.10;;;1.00;;
29538;SDS011;16482;51.046;4.498;2022-07-03T15:42:20;1.20;;;1.10;;
29538;SDS011;16482;51.046;4.498;2022-07-03T15:45:06;2.00;;;1.40;;
29538;SDS011;16482;51.046;4.498;2022-07-03T15:48:15;1.83;;;1.00;;
29538;SDS011;16482;51.046;4.498;2022-07-03T15:53:36;1.20;;;1.10;;
29538;SDS011;16482;51.046;4.498;2022-07-03T15:56:03;2.15;;;1.10;;
29538;SDS011;16482;51.046;4.498;2022-07-03T15:58:34;1.77;;;1.25;;
29538;SDS011;16482;51.046;4.498;2022-07-03T16:01:04;1.65;;;1.20;;
29538;SDS011;16482;51.046;4.498;2022-07-03T16:06:31;2.20;;;1.50;;
29538;SDS011;16482;51.046;4.498;2022-07-03T16:09:00;2.00;;;1.50;;
29538;SDS011;16482;51.046;4.498;2022-07-03T16:11:28;1.67;;;1.30;;
29538;SDS011;16482;51.046;4.498;2022-07-03T16:14:02;1.35;;;1.10;;
29538;SDS011;16482;51.046;4.498;2022-07-03T16:16:30;1.98;;;1.40;;
29538;SDS011;16482;51.046;4.498;2022-07-03T16:19:00;1.60;;;1.27;;
29538;SDS011;16482;51.046;4.498;2022-07-03T16:21:30;2.03;;;1.13;;
29538;SDS011;16482;51.046;4.498;2022-07-03T16:24:00;2.53;;;1.48;;
29538;SDS011;16482;51.046;4.498;2022-07-03T16:26:31;4.10;;;1.30;;
29538;SDS011;16482;51.046;4.498;2022-07-03T16:28:59;2.70;;;1.20;;
29538;SDS011;16482;51.046;4.498;2022-07-03T16:31:32;1.48;;;1.30;;
29538;SDS011;16482;51.046;4.498;2022-07-03T16:34:23;1.83;;;1.10;;
29538;SDS011;16482;51.046;4.498;2022-07-03T16:36:51;2.80;;;1.40;;
29538;SDS011;16482;51.046;4.498;2022-07-03T16:39:23;1.63;;;1.25;;
29538;SDS011;16482;51.046;4.498;2022-07-03T16:41:55;3.80;;;1.08;;
29538;SDS011;16482;51.046;4.498;2022-07-03T16:44:25;1.88;;;1.20;;
29538;SDS011;16482;51.046;4.498;2022-07-03T16:46:55;2.17;;;1.40;;